sensor_id;sensor_type;location;lat;lon;timestamp;pressure;altitude;pressure_sealevel;temperature;humidity
19259;BME280;9763;48.780;9.212;2022-07-10T00:01:02;98997.50;;;23.13;45.21
19259;BME280;9763;48.780;9.212;2022-07-10T00:04:26;99005.47;;;23.13;45.58
19259;BME280;9763;48.780;9.212;2022-07-10T00:07:51;99003.81;;;23.12;45.64
19259;BME280;9763;48.780;9.212;2022-07-10T00:11:15;98997.97;;;23.08;45.77
19259;BME280;9763;48.780;9.212;2022-07-10T00:14:39;98999.63;;;23.09;45.69
19259;BME280;9763;48.780;9.212;2022-07-10T00:18:04;98998.81;;;23.09;46.04
19259;BME280;9763;48.780;9.212;2022-07-10T00:21:27;98989.16;;;23.08;46.07
19259;BME280;9763;48.780;9.212;2022-07-10T00:24:51;98989.00;;;23.09;46.03
19259;BME280;9763;48.780;9.212;2022-07-10T00:28:15;98982.66;;;23.10;45.80
19259;BME280;9763;48.780;9.212;2022-07-10T00:31:39;98982.81;;;23.09;46.15
19259;BME280;9763;48.780;9.212;2022-07-10T00:35:05;98980.31;;;23.07;45.66
19259;BME280;9763;48.780;9.212;2022-07-10T00:38:28;98987.47;;;23.07;45.88
19259;BME280;9763;48.780;9.212;2022-07-10T00:41:52;98986.50;;;23.08;46.15
19259;BME280;9763;48.780;9.212;2022-07-10T00:45:16;98981.16;;;23.08;45.76
19259;BME280;9763;48.780;9.212;2022-07-10T00:48:40;98983.81;;;23.08;45.50
19259;BME280;9763;48.780;9.212;2022-07-10T00:52:08;98987.16;;;23.10;46.13
19259;BME280;9763;48.780;9.212;2022-07-10T00:55:36;98986.16;;;23.11;46.02
19259;BME280;9763;48.780;9.212;2022-07-10T00:59:00;98981.66;;;23.11;45.77
19259;BME280;9763;48.780;9.212;2022-07-10T01:02:24;98981.50;;;23.05;46.04
19259;BME280;9763;48.780;9.212;2022-07-10T01:05:48;98981.47;;;22.96;46.34
19259;BME280;9763;48.780;9.212;2022-07-10T01:09:13;98976.16;;;22.88;46.33
19259;BME280;9763;48.780;9.212;2022-07-10T01:12:38;98966.34;;;22.81;46.38
19259;BME280;9763;48.780;9.212;2022-07-10T01:16:02;98973.09;;;22.75;46.54
19259;BME280;9763;48.780;9.212;2022-07-10T01:19:26;98971.41;;;22.66;46.42
19259;BME280;9763;48.780;9.212;2022-07-10T01:22:51;98965.06;;;22.59;46.10
19259;BME280;9763;48.780;9.212;2022-07-10T01:26:14;98971.19;;;22.51;46.44
19259;BME280;9763;48.780;9.212;2022-07-10T01:29:39;98974.69;;;22.44;46.51
19259;BME280;9763;48.780;9.212;2022-07-10T01:33:03;98973.16;;;22.41;46.58
19259;BME280;9763;48.780;9.212;2022-07-10T01:36:29;98965.34;;;22.40;46.71
19259;BME280;9763;48.780;9.212;2022-07-10T01:39:54;98968.84;;;22.40;46.75
19259;BME280;9763;48.780;9.212;2022-07-10T01:43:17;98962.84;;;22.38;46.64
19259;BME280;9763;48.780;9.212;2022-07-10T01:46:46;98963.16;;;22.35;46.64
19259;BME280;9763;48.780;9.212;2022-07-10T01:50:11;98958.34;;;22.31;46.38
19259;BME280;9763;48.780;9.212;2022-07-10T01:53:35;98963.44;;;22.24;46.85
19259;BME280;9763;48.780;9.212;2022-07-10T01:57:00;98970.41;;;22.17;47.08
19259;BME280;9763;48.780;9.212;2022-07-10T02:04:36;98969.47;;;22.00;46.95
19259;BME280;9763;48.780;9.212;2022-07-10T02:08:05;98985.06;;;21.95;47.42
19259;BME280;9763;48.780;9.212;2022-07-10T02:11:28;98982.19;;;21.88;47.21
19259;BME280;9763;48.780;9.212;2022-07-10T02:14:53;98970.38;;;21.83;47.43
19259;BME280;9763;48.780;9.212;2022-07-10T02:18:22;98979.63;;;21.79;47.76
19259;BME280;9763;48.780;9.212;2022-07-10T02:21:45;98978.28;;;21.75;47.71
19259;BME280;9763;48.780;9.212;2022-07-10T02:25:09;98985.59;;;21.73;47.52
19259;BME280;9763;48.780;9.212;2022-07-10T02:28:33;98985.06;;;21.69;47.65
19259;BME280;9763;48.780;9.212;2022-07-10T02:31:58;98979.59;;;21.71;47.76
19259;BME280;9763;48.780;9.212;2022-07-10T02:35:22;98985.41;;;21.74;47.73
19259;BME280;9763;48.780;9.212;2022-07-10T02:38:46;98993.91;;;21.78;47.79
19259;BME280;9763;48.780;9.212;2022-07-10T02:42:09;98998.94;;;21.81;48.51
19259;BME280;9763;48.780;9.212;2022-07-10T02:45:33;98996.13;;;21.82;48.95
19259;BME280;9763;48.780;9.212;2022-07-10T02:48:58;99000.59;;;21.82;48.91
19259;BME280;9763;48.780;9.212;2022-07-10T02:52:22;99006.59;;;21.84;48.64
19259;BME280;9763;48.780;9.212;2022-07-10T02:55:45;99002.13;;;21.84;48.76
19259;BME280;9763;48.780;9.212;2022-07-10T02:59:09;99003.25;;;21.82;49.30
19259;BME280;9763;48.780;9.212;2022-07-10T03:02:33;99000.44;;;21.83;49.17
19259;BME280;9763;48.780;9.212;2022-07-10T03:05:58;99003.59;;;21.87;49.09
19259;BME280;9763;48.780;9.212;2022-07-10T03:09:22;99007.31;;;21.94;48.44
19259;BME280;9763;48.780;9.212;2022-07-10T03:12:47;99005.72;;;22.01;48.99
19259;BME280;9763;48.780;9.212;2022-07-10T03:16:11;99000.63;;;22.08;49.07
19259;BME280;9763;48.780;9.212;2022-07-10T03:19:36;99001.25;;;22.10;48.87
19259;BME280;9763;48.780;9.212;2022-07-10T03:23:01;99003.13;;;22.09;48.84
19259;BME280;9763;48.780;9.212;2022-07-10T03:26:25;99000.78;;;22.06;48.64
19259;BME280;9763;48.780;9.212;2022-07-10T03:29:51;99002.59;;;22.06;48.54
19259;BME280;9763;48.780;9.212;2022-07-10T03:33:15;99006.41;;;22.03;48.88
19259;BME280;9763;48.780;9.212;2022-07-10T03:36:38;99001.53;;;21.99;48.52
19259;BME280;9763;48.780;9.212;2022-07-10T03:40:07;99012.78;;;21.92;48.83
19259;BME280;9763;48.780;9.212;2022-07-10T03:43:30;99009.44;;;21.90;48.84
19259;BME280;9763;48.780;9.212;2022-07-10T03:46:54;99004.28;;;21.89;48.51
19259;BME280;9763;48.780;9.212;2022-07-10T03:50:18;99002.13;;;21.84;48.49
19259;BME280;9763;48.780;9.212;2022-07-10T03:53:41;99000.91;;;21.79;48.81
19259;BME280;9763;48.780;9.212;2022-07-10T03:57:06;98994.41;;;21.73;48.96
19259;BME280;9763;48.780;9.212;2022-07-10T04:00:48;99000.38;;;21.75;49.21
19259;BME280;9763;48.780;9.212;2022-07-10T04:04:11;99001.72;;;21.79;49.19
19259;BME280;9763;48.780;9.212;2022-07-10T04:07:36;98999.91;;;21.80;49.12
19259;BME280;9763;48.780;9.212;2022-07-10T04:10:59;99004.09;;;21.82;49.42
19259;BME280;9763;48.780;9.212;2022-07-10T04:14:24;98993.59;;;21.81;49.66
19259;BME280;9763;48.780;9.212;2022-07-10T04:17:49;98997.94;;;21.82;49.08
19259;BME280;9763;48.780;9.212;2022-07-10T04:21:13;98999.59;;;21.83;49.60
19259;BME280;9763;48.780;9.212;2022-07-10T04:24:36;99005.41;;;21.86;49.96
19259;BME280;9763;48.780;9.212;2022-07-10T04:28:00;99009.59;;;21.89;49.94
19259;BME280;9763;48.780;9.212;2022-07-10T04:31:25;99008.59;;;21.90;49.51
19259;BME280;9763;48.780;9.212;2022-07-10T04:34:49;99006.47;;;21.93;49.62
19259;BME280;9763;48.780;9.212;2022-07-10T04:38:12;99010.66;;;21.96;49.88
19259;BME280;9763;48.780;9.212;2022-07-10T04:41:36;99007.00;;;21.97;49.57
19259;BME280;9763;48.780;9.212;2022-07-10T04:45:00;99008.84;;;21.97;50.04
19259;BME280;9763;48.780;9.212;2022-07-10T04:48:25;99009.97;;;21.94;49.95
19259;BME280;9763;48.780;9.212;2022-07-10T04:51:49;99007.16;;;21.96;49.46
19259;BME280;9763;48.780;9.212;2022-07-10T04:55:13;99007.34;;;22.28;49.62
19259;BME280;9763;48.780;9.212;2022-07-10T04:58:36;99012.75;;;22.78;49.89
19259;BME280;9763;48.780;9.212;2022-07-10T05:02:01;99011.47;;;23.23;50.17
19259;BME280;9763;48.780;9.212;2022-07-10T05:05:26;99015.19;;;23.54;49.44
19259;BME280;9763;48.780;9.212;2022-07-10T05:08:49;99020.84;;;23.59;48.72
19259;BME280;9763;48.780;9.212;2022-07-10T05:12:15;99020.19;;;23.57;48.69
19259;BME280;9763;48.780;9.212;2022-07-10T05:15:39;99021.63;;;23.44;48.02
19259;BME280;9763;48.780;9.212;2022-07-10T05:19:03;99023.47;;;23.27;48.08
19259;BME280;9763;48.780;9.212;2022-07-10T05:22:28;99021.31;;;23.14;47.86
19259;BME280;9763;48.780;9.212;2022-07-10T05:25:52;99023.28;;;23.12;48.52
19259;BME280;9763;48.780;9.212;2022-07-10T05:29:16;99029.63;;;23.11;47.88
19259;BME280;9763;48.780;9.212;2022-07-10T05:32:43;99035.25;;;23.00;47.94
19259;BME280;9763;48.780;9.212;2022-07-10T05:36:08;99034.75;;;22.96;47.88
19259;BME280;9763;48.780;9.212;2022-07-10T05:39:33;99032.06;;;22.88;48.39
19259;BME280;9763;48.780;9.212;2022-07-10T05:42:57;99029.63;;;23.19;48.20
19259;BME280;9763;48.780;9.212;2022-07-10T05:46:21;99030.16;;;23.47;47.95
19259;BME280;9763;48.780;9.212;2022-07-10T05:49:45;99036.00;;;23.75;48.17
19259;BME280;9763;48.780;9.212;2022-07-10T05:53:08;99032.84;;;23.88;48.19
19259;BME280;9763;48.780;9.212;2022-07-10T05:56:33;99041.81;;;23.95;47.67
19259;BME280;9763;48.780;9.212;2022-07-10T05:59:57;99049.31;;;23.99;47.06
19259;BME280;9763;48.780;9.212;2022-07-10T06:03:21;99054.47;;;24.01;47.09
19259;BME280;9763;48.780;9.212;2022-07-10T06:06:44;99053.44;;;24.18;46.76
19259;BME280;9763;48.780;9.212;2022-07-10T06:10:09;99056.44;;;24.31;46.85
19259;BME280;9763;48.780;9.212;2022-07-10T06:13:34;99055.59;;;24.39;46.24
19259;BME280;9763;48.780;9.212;2022-07-10T06:16:58;99055.22;;;24.42;45.83
19259;BME280;9763;48.780;9.212;2022-07-10T06:20:22;99068.41;;;24.44;45.51
19259;BME280;9763;48.780;9.212;2022-07-10T06:23:45;99058.25;;;24.39;45.54
19259;BME280;9763;48.780;9.212;2022-07-10T06:27:10;99056.56;;;24.46;45.79
19259;BME280;9763;48.780;9.212;2022-07-10T06:30:35;99059.84;;;24.56;45.37
19259;BME280;9763;48.780;9.212;2022-07-10T06:33:59;99059.19;;;24.62;45.49
19259;BME280;9763;48.780;9.212;2022-07-10T06:37:23;99065.03;;;24.58;44.83
19259;BME280;9763;48.780;9.212;2022-07-10T06:40:48;99060.84;;;24.55;45.30
19259;BME280;9763;48.780;9.212;2022-07-10T06:49:11;99072.81;;;23.96;45.92
19259;BME280;9763;48.780;9.212;2022-07-10T06:52:36;99076.28;;;24.21;44.96
19259;BME280;9763;48.780;9.212;2022-07-10T06:56:00;99084.63;;;24.34;44.94
19259;BME280;9763;48.780;9.212;2022-07-10T06:59:24;99077.72;;;24.56;44.94
19259;BME280;9763;48.780;9.212;2022-07-10T07:02:48;99073.00;;;25.05;44.60
19259;BME280;9763;48.780;9.212;2022-07-10T07:06:13;99069.72;;;25.26;44.06
19259;BME280;9763;48.780;9.212;2022-07-10T07:09:37;99071.00;;;25.61;43.35
19259;BME280;9763;48.780;9.212;2022-07-10T07:13:00;99086.69;;;26.01;42.88
19259;BME280;9763;48.780;9.212;2022-07-10T07:16:25;99083.22;;;26.15;42.83
19259;BME280;9763;48.780;9.212;2022-07-10T07:20:01;99077.59;;;26.25;41.97
19259;BME280;9763;48.780;9.212;2022-07-10T07:23:44;99082.78;;;26.27;41.26
19259;BME280;9763;48.780;9.212;2022-07-10T07:27:08;99085.53;;;26.18;41.90
19259;BME280;9763;48.780;9.212;2022-07-10T07:30:32;99090.59;;;26.13;41.75
19259;BME280;9763;48.780;9.212;2022-07-10T07:33:56;99091.91;;;25.80;40.92
19259;BME280;9763;48.780;9.212;2022-07-10T07:37:20;99098.00;;;25.43;41.63
19259;BME280;9763;48.780;9.212;2022-07-10T07:40:45;99099.34;;;25.16;41.26
19259;BME280;9763;48.780;9.212;2022-07-10T07:44:09;99101.59;;;24.88;41.10
19259;BME280;9763;48.780;9.212;2022-07-10T07:47:43;99099.41;;;24.61;41.55
19259;BME280;9763;48.780;9.212;2022-07-10T07:51:08;99105.63;;;24.37;41.71
19259;BME280;9763;48.780;9.212;2022-07-10T07:54:31;99104.28;;;24.17;41.57
19259;BME280;9763;48.780;9.212;2022-07-10T07:57:57;99099.94;;;24.16;41.50
19259;BME280;9763;48.780;9.212;2022-07-10T08:01:21;99102.66;;;24.24;41.89
19259;BME280;9763;48.780;9.212;2022-07-10T08:04:45;99098.13;;;24.32;41.90
19259;BME280;9763;48.780;9.212;2022-07-10T08:08:09;99098.41;;;24.62;41.74
19259;BME280;9763;48.780;9.212;2022-07-10T08:11:32;99098.47;;;25.24;41.65
19259;BME280;9763;48.780;9.212;2022-07-10T08:14:57;99095.66;;;26.08;40.87
19259;BME280;9763;48.780;9.212;2022-07-10T08:18:21;99080.47;;;27.54;40.15
19259;BME280;9763;48.780;9.212;2022-07-10T08:21:45;99077.19;;;28.85;39.11
19259;BME280;9763;48.780;9.212;2022-07-10T08:25:09;99069.50;;;28.82;39.30
19259;BME280;9763;48.780;9.212;2022-07-10T08:28:33;99078.16;;;28.43;38.92
19259;BME280;9763;48.780;9.212;2022-07-10T08:31:59;99070.44;;;29.22;39.12
19259;BME280;9763;48.780;9.212;2022-07-10T08:35:23;99061.66;;;29.74;37.92
19259;BME280;9763;48.780;9.212;2022-07-10T08:38:46;99069.19;;;30.90;37.09
19259;BME280;9763;48.780;9.212;2022-07-10T08:42:10;99066.41;;;32.29;36.56
19259;BME280;9763;48.780;9.212;2022-07-10T08:45:34;99054.72;;;34.14;34.40
19259;BME280;9763;48.780;9.212;2022-07-10T08:49:02;99055.50;;;34.85;33.87
19259;BME280;9763;48.780;9.212;2022-07-10T08:52:34;99049.53;;;34.24;33.66
19259;BME280;9763;48.780;9.212;2022-07-10T08:56:01;99053.31;;;34.47;32.94
19259;BME280;9763;48.780;9.212;2022-07-10T08:59:25;99048.28;;;35.19;31.48
19259;BME280;9763;48.780;9.212;2022-07-10T09:02:54;99047.75;;;34.18;31.46
19259;BME280;9763;48.780;9.212;2022-07-10T09:06:20;99054.25;;;33.22;30.43
19259;BME280;9763;48.780;9.212;2022-07-10T09:09:54;99061.31;;;32.75;31.45
19259;BME280;9763;48.780;9.212;2022-07-10T09:13:18;99056.59;;;32.09;31.57
19259;BME280;9763;48.780;9.212;2022-07-10T09:16:44;99069.88;;;31.55;32.69
19259;BME280;9763;48.780;9.212;2022-07-10T09:20:25;99064.38;;;30.98;32.92
19259;BME280;9763;48.780;9.212;2022-07-10T09:23:50;99070.13;;;31.15;32.96
19259;BME280;9763;48.780;9.212;2022-07-10T09:27:15;99076.25;;;30.84;32.94
19259;BME280;9763;48.780;9.212;2022-07-10T09:30:39;99077.38;;;31.08;32.41
19259;BME280;9763;48.780;9.212;2022-07-10T09:34:04;99066.13;;;33.21;30.90
19259;BME280;9763;48.780;9.212;2022-07-10T09:37:29;99063.28;;;34.81;29.73
19259;BME280;9763;48.780;9.212;2022-07-10T09:40:54;99064.38;;;34.22;30.05
19259;BME280;9763;48.780;9.212;2022-07-10T09:44:19;99066.47;;;33.13;30.07
19259;BME280;9763;48.780;9.212;2022-07-10T09:47:44;99066.47;;;32.22;31.04
19259;BME280;9763;48.780;9.212;2022-07-10T09:51:10;99069.97;;;32.47;31.04
19259;BME280;9763;48.780;9.212;2022-07-10T09:54:36;99066.13;;;33.21;30.40
19259;BME280;9763;48.780;9.212;2022-07-10T09:58:03;99061.41;;;34.70;28.55
19259;BME280;9763;48.780;9.212;2022-07-10T10:01:28;99059.25;;;36.19;27.38
19259;BME280;9763;48.780;9.212;2022-07-10T10:04:52;99058.69;;;36.17;27.21
19259;BME280;9763;48.780;9.212;2022-07-10T10:08:19;99065.69;;;35.06;27.75
19259;BME280;9763;48.780;9.212;2022-07-10T10:11:47;99062.13;;;34.77;28.25
19259;BME280;9763;48.780;9.212;2022-07-10T10:15:15;99057.03;;;34.69;27.14
19259;BME280;9763;48.780;9.212;2022-07-10T10:18:42;99067.31;;;33.85;27.37
19259;BME280;9763;48.780;9.212;2022-07-10T10:22:23;99053.06;;;32.70;28.30
19259;BME280;9763;48.780;9.212;2022-07-10T10:25:48;99047.13;;;31.75;27.96
19259;BME280;9763;48.780;9.212;2022-07-10T10:29:12;99054.66;;;31.35;28.40
19259;BME280;9763;48.780;9.212;2022-07-10T10:32:41;99044.81;;;32.47;27.96
19259;BME280;9763;48.780;9.212;2022-07-10T10:36:06;99037.50;;;33.85;27.01
19259;BME280;9763;48.780;9.212;2022-07-10T10:39:29;99031.94;;;33.27;26.69
19259;BME280;9763;48.780;9.212;2022-07-10T10:42:54;99035.25;;;33.82;25.69
19259;BME280;9763;48.780;9.212;2022-07-10T10:46:24;99034.78;;;34.44;25.32
19259;BME280;9763;48.780;9.212;2022-07-10T10:49:58;99022.66;;;35.15;25.41
19259;BME280;9763;48.780;9.212;2022-07-10T10:53:25;99023.34;;;34.53;25.36
19259;BME280;9763;48.780;9.212;2022-07-10T10:57:11;99033.06;;;34.89;25.48
19259;BME280;9763;48.780;9.212;2022-07-10T11:00:35;99023.00;;;36.14;24.52
19259;BME280;9763;48.780;9.212;2022-07-10T11:04:21;99020.38;;;36.19;24.51
19259;BME280;9763;48.780;9.212;2022-07-10T11:07:53;99016.63;;;36.85;23.39
19259;BME280;9763;48.780;9.212;2022-07-10T11:11:37;99027.56;;;36.08;23.80
19259;BME280;9763;48.780;9.212;2022-07-10T11:15:02;99030.28;;;34.61;25.29
19259;BME280;9763;48.780;9.212;2022-07-10T11:18:29;99033.38;;;33.94;25.86
19259;BME280;9763;48.780;9.212;2022-07-10T11:22:18;99025.59;;;34.10;25.51
19259;BME280;9763;48.780;9.212;2022-07-10T11:25:52;99027.28;;;33.46;26.11
19259;BME280;9763;48.780;9.212;2022-07-10T11:29:24;99017.22;;;32.56;26.68
19259;BME280;9763;48.780;9.212;2022-07-10T11:32:47;99022.06;;;31.62;26.75
19259;BME280;9763;48.780;9.212;2022-07-10T11:36:15;99025.53;;;31.12;26.79
19259;BME280;9763;48.780;9.212;2022-07-10T11:39:39;99016.25;;;31.65;25.76
19259;BME280;9763;48.780;9.212;2022-07-10T11:43:04;99013.84;;;32.79;24.83
19259;BME280;9763;48.780;9.212;2022-07-10T11:46:33;99014.31;;;34.01;24.20
19259;BME280;9763;48.780;9.212;2022-07-10T11:49:57;99010.84;;;35.21;23.71
19259;BME280;9763;48.780;9.212;2022-07-10T11:53:25;99012.22;;;35.52;22.71
19259;BME280;9763;48.780;9.212;2022-07-10T11:56:52;98999.06;;;35.44;22.62
19259;BME280;9763;48.780;9.212;2022-07-10T12:00:27;99004.22;;;36.12;22.03
19259;BME280;9763;48.780;9.212;2022-07-10T12:03:57;98997.03;;;36.83;21.39
19259;BME280;9763;48.780;9.212;2022-07-10T12:07:21;98999.44;;;37.06;20.43
19259;BME280;9763;48.780;9.212;2022-07-10T12:10:45;98999.06;;;36.11;21.41
19259;BME280;9763;48.780;9.212;2022-07-10T12:14:12;99015.97;;;34.89;22.00
19259;BME280;9763;48.780;9.212;2022-07-10T12:17:50;99012.66;;;34.87;22.69
19259;BME280;9763;48.780;9.212;2022-07-10T12:21:15;99009.84;;;36.05;21.87
19259;BME280;9763;48.780;9.212;2022-07-10T12:24:40;99008.91;;;36.55;21.15
19259;BME280;9763;48.780;9.212;2022-07-10T12:28:04;99013.94;;;35.41;21.86
19259;BME280;9763;48.780;9.212;2022-07-10T12:31:30;99019.97;;;34.11;23.31
19259;BME280;9763;48.780;9.212;2022-07-10T12:34:59;99012.06;;;34.33;23.25
19259;BME280;9763;48.780;9.212;2022-07-10T12:38:24;99001.44;;;35.57;22.20
19259;BME280;9763;48.780;9.212;2022-07-10T12:42:00;99006.97;;;35.62;21.87
19259;BME280;9763;48.780;9.212;2022-07-10T12:45:24;98997.94;;;36.12;21.22
19259;BME280;9763;48.780;9.212;2022-07-10T12:49:07;99008.63;;;37.00;20.90
19259;BME280;9763;48.780;9.212;2022-07-10T12:52:35;98999.06;;;37.83;20.07
19259;BME280;9763;48.780;9.212;2022-07-10T12:56:00;98996.84;;;37.80;20.01
19259;BME280;9763;48.780;9.212;2022-07-10T12:59:25;99002.09;;;37.92;19.82
19259;BME280;9763;48.780;9.212;2022-07-10T13:02:57;99006.09;;;38.16;19.53
19259;BME280;9763;48.780;9.212;2022-07-10T13:06:28;99000.47;;;38.28;19.17
19259;BME280;9763;48.780;9.212;2022-07-10T13:09:54;99003.50;;;38.42;19.23
19259;BME280;9763;48.780;9.212;2022-07-10T13:13:25;99009.78;;;38.42;19.50
19259;BME280;9763;48.780;9.212;2022-07-10T13:16:49;98997.53;;;38.40;19.32
19259;BME280;9763;48.780;9.212;2022-07-10T13:20:12;98998.13;;;38.52;19.11
19259;BME280;9763;48.780;9.212;2022-07-10T13:23:37;99000.84;;;38.52;19.08
19259;BME280;9763;48.780;9.212;2022-07-10T13:27:03;98990.38;;;38.34;19.63
19259;BME280;9763;48.780;9.212;2022-07-10T13:30:27;99002.59;;;38.21;18.96
19259;BME280;9763;48.780;9.212;2022-07-10T13:33:50;98991.75;;;37.89;19.26
19259;BME280;9763;48.780;9.212;2022-07-10T13:37:14;99007.28;;;37.89;19.13
19259;BME280;9763;48.780;9.212;2022-07-10T13:40:38;99012.97;;;37.23;19.20
19259;BME280;9763;48.780;9.212;2022-07-10T13:44:04;99010.41;;;36.24;19.78
19259;BME280;9763;48.780;9.212;2022-07-10T13:47:31;99008.03;;;35.16;20.85
19259;BME280;9763;48.780;9.212;2022-07-10T13:50:55;98982.47;;;34.08;21.23
19259;BME280;9763;48.780;9.212;2022-07-10T13:54:19;99000.00;;;32.87;23.04
19259;BME280;9763;48.780;9.212;2022-07-10T13:57:43;99010.09;;;31.82;23.80
19259;BME280;9763;48.780;9.212;2022-07-10T14:01:08;99007.72;;;30.98;24.63
19259;BME280;9763;48.780;9.212;2022-07-10T14:04:32;99018.16;;;30.30;25.08
19259;BME280;9763;48.780;9.212;2022-07-10T14:07:56;99011.34;;;29.75;25.55
19259;BME280;9763;48.780;9.212;2022-07-10T14:11:20;99025.19;;;29.32;26.14
19259;BME280;9763;48.780;9.212;2022-07-10T14:14:43;99028.03;;;29.11;25.94
19259;BME280;9763;48.780;9.212;2022-07-10T14:18:08;99017.84;;;28.93;26.29
19259;BME280;9763;48.780;9.212;2022-07-10T14:21:32;99032.22;;;28.73;26.33
19259;BME280;9763;48.780;9.212;2022-07-10T14:24:56;99025.91;;;28.52;26.87
19259;BME280;9763;48.780;9.212;2022-07-10T14:28:20;99024.41;;;28.37;26.26
19259;BME280;9763;48.780;9.212;2022-07-10T14:31:44;99018.97;;;28.23;26.55
19259;BME280;9763;48.780;9.212;2022-07-10T14:35:12;99023.19;;;28.11;26.65
19259;BME280;9763;48.780;9.212;2022-07-10T14:38:36;99025.91;;;27.90;27.17
19259;BME280;9763;48.780;9.212;2022-07-10T14:42:00;99016.69;;;27.71;27.51
19259;BME280;9763;48.780;9.212;2022-07-10T14:45:24;99014.44;;;27.53;27.38
19259;BME280;9763;48.780;9.212;2022-07-10T14:49:07;99020.41;;;27.28;27.74
19259;BME280;9763;48.780;9.212;2022-07-10T14:52:33;99016.31;;;27.10;27.70
19259;BME280;9763;48.780;9.212;2022-07-10T14:55:59;99025.59;;;26.93;27.70
19259;BME280;9763;48.780;9.212;2022-07-10T14:59:23;99021.81;;;26.87;27.81
19259;BME280;9763;48.780;9.212;2022-07-10T15:02:46;99023.31;;;26.75;28.34
19259;BME280;9763;48.780;9.212;2022-07-10T15:06:10;99027.22;;;26.58;28.38
19259;BME280;9763;48.780;9.212;2022-07-10T15:09:36;99022.91;;;26.42;28.41
19259;BME280;9763;48.780;9.212;2022-07-10T15:12:59;99024.63;;;26.35;28.61
19259;BME280;9763;48.780;9.212;2022-07-10T15:16:27;99011.50;;;26.26;28.83
19259;BME280;9763;48.780;9.212;2022-07-10T15:19:52;99017.81;;;26.18;28.68
19259;BME280;9763;48.780;9.212;2022-07-10T15:23:20;99018.34;;;26.13;28.78
19259;BME280;9763;48.780;9.212;2022-07-10T15:26:46;99012.81;;;26.15;29.05
19259;BME280;9763;48.780;9.212;2022-07-10T15:30:10;99010.78;;;26.17;29.30
19259;BME280;9763;48.780;9.212;2022-07-10T15:33:34;99014.66;;;26.14;29.21
19259;BME280;9763;48.780;9.212;2022-07-10T15:36:59;99014.75;;;26.06;28.43
19259;BME280;9763;48.780;9.212;2022-07-10T15:40:23;99014.19;;;25.96;29.11
19259;BME280;9763;48.780;9.212;2022-07-10T15:43:48;99016.75;;;25.90;28.63
19259;BME280;9763;48.780;9.212;2022-07-10T15:47:11;99014.44;;;25.87;28.70
19259;BME280;9763;48.780;9.212;2022-07-10T15:50:35;99010.31;;;25.84;29.21
19259;BME280;9763;48.780;9.212;2022-07-10T15:53:59;98997.94;;;25.83;29.35
19259;BME280;9763;48.780;9.212;2022-07-10T15:57:23;98988.25;;;25.82;28.81
19259;BME280;9763;48.780;9.212;2022-07-10T16:00:48;98993.41;;;25.83;29.29
19259;BME280;9763;48.780;9.212;2022-07-10T16:04:11;98998.84;;;25.90;29.09
19259;BME280;9763;48.780;9.212;2022-07-10T16:07:35;99000.34;;;25.93;29.36
19259;BME280;9763;48.780;9.212;2022-07-10T16:10:59;98999.31;;;25.94;29.42
19259;BME280;9763;48.780;9.212;2022-07-10T16:14:23;98998.19;;;25.88;29.57
19259;BME280;9763;48.780;9.212;2022-07-10T16:17:48;98997.09;;;25.82;29.37
19259;BME280;9763;48.780;9.212;2022-07-10T16:21:12;98983.91;;;25.81;29.69
19259;BME280;9763;48.780;9.212;2022-07-10T16:24:37;98988.44;;;25.80;29.29
19259;BME280;9763;48.780;9.212;2022-07-10T16:28:22;98988.13;;;25.75;29.73
19259;BME280;9763;48.780;9.212;2022-07-10T16:31:46;98986.38;;;25.68;29.68
19259;BME280;9763;48.780;9.212;2022-07-10T16:35:11;98988.44;;;25.58;29.91
19259;BME280;9763;48.780;9.212;2022-07-10T16:38:35;98982.78;;;25.53;29.61
19259;BME280;9763;48.780;9.212;2022-07-10T16:41:58;98982.13;;;25.51;29.87
19259;BME280;9763;48.780;9.212;2022-07-10T16:45:22;98992.38;;;25.47;29.71
19259;BME280;9763;48.780;9.212;2022-07-10T16:48:47;98983.88;;;25.43;29.68
19259;BME280;9763;48.780;9.212;2022-07-10T16:52:13;98979.19;;;25.45;29.92
19259;BME280;9763;48.780;9.212;2022-07-10T16:55:36;98975.78;;;25.52;29.68
19259;BME280;9763;48.780;9.212;2022-07-10T16:59:00;98970.03;;;25.63;29.63
19259;BME280;9763;48.780;9.212;2022-07-10T17:02:24;98973.38;;;25.79;29.94
19259;BME280;9763;48.780;9.212;2022-07-10T17:05:48;98958.53;;;25.92;30.05
19259;BME280;9763;48.780;9.212;2022-07-10T17:09:13;98963.72;;;25.93;29.77
19259;BME280;9763;48.780;9.212;2022-07-10T17:12:38;98969.44;;;25.90;29.59
19259;BME280;9763;48.780;9.212;2022-07-10T17:16:03;98971.38;;;25.81;29.45
19259;BME280;9763;48.780;9.212;2022-07-10T17:19:29;98977.22;;;25.62;29.75
19259;BME280;9763;48.780;9.212;2022-07-10T17:22:53;98978.19;;;25.46;30.13
19259;BME280;9763;48.780;9.212;2022-07-10T17:26:18;98989.50;;;25.34;30.15
19259;BME280;9763;48.780;9.212;2022-07-10T17:29:42;98977.56;;;25.22;30.16
19259;BME280;9763;48.780;9.212;2022-07-10T17:33:06;98990.97;;;25.13;30.02
19259;BME280;9763;48.780;9.212;2022-07-10T17:36:32;98986.03;;;25.02;30.31
19259;BME280;9763;48.780;9.212;2022-07-10T17:39:56;98991.59;;;24.93;30.20
19259;BME280;9763;48.780;9.212;2022-07-10T17:43:21;98992.66;;;24.84;30.44
19259;BME280;9763;48.780;9.212;2022-07-10T17:46:45;98989.38;;;24.73;30.54
19259;BME280;9763;48.780;9.212;2022-07-10T17:50:09;98994.28;;;24.62;30.87
19259;BME280;9763;48.780;9.212;2022-07-10T17:53:33;98995.66;;;24.50;30.98
19259;BME280;9763;48.780;9.212;2022-07-10T17:56:56;99000.50;;;24.46;31.06
19259;BME280;9763;48.780;9.212;2022-07-10T18:00:21;98992.50;;;24.46;31.11
19259;BME280;9763;48.780;9.212;2022-07-10T18:03:45;98988.66;;;24.49;31.03
19259;BME280;9763;48.780;9.212;2022-07-10T18:07:09;98990.97;;;24.52;31.40
19259;BME280;9763;48.780;9.212;2022-07-10T18:10:34;98991.28;;;24.57;31.36
19259;BME280;9763;48.780;9.212;2022-07-10T18:13:57;98988.94;;;24.62;31.30
19259;BME280;9763;48.780;9.212;2022-07-10T18:17:22;98984.22;;;24.64;31.20
19259;BME280;9763;48.780;9.212;2022-07-10T18:20:46;98994.88;;;24.72;31.43
19259;BME280;9763;48.780;9.212;2022-07-10T18:24:10;98992.50;;;24.77;31.43
19259;BME280;9763;48.780;9.212;2022-07-10T18:27:38;98996.84;;;24.78;31.44
19259;BME280;9763;48.780;9.212;2022-07-10T18:31:02;99000.50;;;24.77;31.80